createdAt,value
2022-10-04T00:01:04.306Z,12.56
2022-10-04T00:06:14.070Z,12.56
2022-10-04T00:11:20.668Z,12.57
2022-10-04T00:16:29.492Z,12.52
2022-10-04T00:22:08.230Z,12.44
2022-10-04T00:27:18.895Z,12.41
2022-10-04T00:32:30.730Z,12.38
2022-10-04T00:37:57.209Z,12.29
2022-10-04T00:43:01.089Z,12.16
2022-10-04T00:48:31.088Z,12.10
2022-10-04T00:53:46.651Z,12.00
2022-10-04T00:59:12.184Z,11.97
2022-10-04T01:04:28.739Z,12.01
2022-10-04T01:09:33.557Z,11.95
2022-10-04T01:14:43.064Z,11.97
2022-10-04T01:19:53.188Z,11.92
2022-10-04T01:24:57.149Z,11.86
2022-10-04T01:30:00.477Z,11.80
2022-10-04T01:35:03.421Z,11.74
2022-10-04T01:40:09.906Z,11.70
2022-10-04T01:45:18.266Z,11.70
2022-10-04T01:50:24.007Z,11.77
2022-10-04T01:55:30.186Z,11.82
2022-10-04T02:00:33.206Z,11.79
2022-10-04T02:05:37.670Z,11.77
2022-10-04T02:10:43.815Z,11.74
2022-10-04T02:15:47.923Z,11.65
2022-10-04T02:20:51.455Z,11.62
2022-10-04T02:25:55.541Z,11.59
2022-10-04T02:31:17.663Z,11.58
2022-10-04T02:36:24.450Z,11.55
2022-10-04T02:41:31.855Z,11.51
2022-10-04T02:46:37.565Z,11.47
2022-10-04T02:51:43.411Z,11.44
2022-10-04T02:56:52.395Z,11.31
2022-10-04T03:01:57.318Z,11.25
2022-10-04T03:07:01.447Z,11.15
2022-10-04T03:12:05.821Z,11.04
2022-10-04T03:17:08.793Z,11.02
2022-10-04T03:22:12.509Z,10.93
2022-10-04T03:27:18.778Z,10.93
2022-10-04T03:32:22.010Z,10.93
2022-10-04T03:37:25.482Z,10.81
2022-10-04T03:42:31.723Z,10.75
2022-10-04T03:47:37.579Z,10.69
2022-10-04T03:52:50.677Z,10.72
2022-10-04T03:57:54.894Z,10.65
2022-10-04T04:02:59.387Z,10.59
2022-10-04T04:08:07.393Z,10.64
2022-10-04T04:13:19.324Z,10.69
2022-10-04T04:18:24.157Z,10.67
2022-10-04T04:23:32.864Z,10.76
2022-10-04T04:28:41.477Z,10.94
2022-10-04T04:33:46.238Z,11.00
2022-10-04T04:39:06.589Z,11.02
2022-10-04T04:44:18.279Z,11.00
2022-10-04T04:49:22.520Z,11.02
2022-10-04T04:54:27.131Z,10.98
2022-10-04T04:59:31.200Z,10.99
2022-10-04T05:04:33.808Z,10.95
2022-10-04T05:09:38.427Z,10.98
2022-10-04T05:14:47.015Z,11.00
2022-10-04T05:19:50.640Z,11.04
2022-10-04T05:24:54.513Z,11.08
2022-10-04T05:30:04.653Z,11.13
2022-10-04T05:35:16.568Z,11.16
2022-10-04T05:40:33.253Z,11.24
2022-10-04T05:45:37.241Z,11.33
2022-10-04T05:50:41.759Z,11.27
2022-10-04T05:55:51.013Z,11.07
2022-10-04T06:01:10.454Z,10.95
2022-10-04T06:06:17.667Z,11.07
2022-10-04T06:11:30.152Z,11.11
2022-10-04T06:16:43.619Z,11.19
2022-10-04T06:22:01.826Z,11.39
2022-10-04T06:27:11.089Z,11.49
2022-10-04T06:32:40.305Z,11.61
2022-10-04T06:38:24.616Z,11.68
2022-10-04T06:43:40.195Z,11.72
2022-10-04T06:48:58.582Z,11.80
2022-10-04T06:54:07.075Z,11.80
2022-10-04T06:59:24.586Z,11.86
2022-10-04T07:05:03.247Z,11.93
2022-10-04T07:10:04.809Z,11.97
2022-10-04T07:15:15.577Z,12.09
2022-10-04T07:20:23.158Z,12.15
2022-10-04T07:25:30.496Z,12.23
2022-10-04T07:30:37.198Z,12.31
2022-10-04T07:35:48.797Z,12.40
2022-10-04T07:41:03.504Z,12.57
2022-10-04T07:46:14.031Z,12.65
2022-10-04T07:51:25.453Z,12.75
2022-10-04T07:56:33.998Z,12.84
2022-10-04T08:01:40.516Z,12.91
2022-10-04T08:06:56.388Z,13.04
2022-10-04T08:12:06.401Z,13.18
2022-10-04T08:17:18.293Z,13.19
2022-10-04T08:22:33.270Z,13.28
2022-10-04T08:28:06.782Z,13.29
2022-10-04T08:33:17.350Z,13.43
2022-10-04T08:38:37.237Z,13.49
2022-10-04T08:44:10.520Z,13.57
2022-10-04T08:49:48.506Z,13.67
2022-10-04T08:55:27.028Z,13.66
2022-10-04T09:00:39.828Z,13.66
2022-10-04T09:05:54.881Z,13.61
2022-10-04T09:11:10.391Z,13.76
2022-10-04T09:16:18.527Z,13.86
2022-10-04T09:21:28.766Z,13.89
2022-10-04T09:26:37.284Z,13.89
2022-10-04T09:31:51.396Z,13.92
2022-10-04T09:37:14.990Z,13.92
2022-10-04T09:42:49.809Z,14.10
2022-10-04T09:48:02.840Z,14.18
2022-10-04T09:53:21.089Z,14.31
2022-10-04T09:58:39.023Z,14.41
2022-10-04T10:04:03.868Z,14.61
2022-10-04T10:09:14.356Z,14.86
2022-10-04T10:14:54.068Z,14.80
2022-10-04T10:20:16.692Z,14.94
2022-10-04T10:25:28.999Z,15.25
2022-10-04T10:30:37.076Z,15.39
2022-10-04T10:35:51.059Z,15.41
2022-10-04T10:41:27.503Z,15.49
2022-10-04T10:46:44.013Z,15.53
2022-10-04T10:52:25.453Z,15.76
2022-10-04T10:57:49.176Z,15.81
2022-10-04T11:03:31.100Z,15.91
2022-10-04T11:09:03.156Z,16.63
2022-10-04T11:14:33.263Z,17.97
2022-10-04T11:19:56.185Z,23.16
2022-10-04T11:25:15.212Z,23.72
2022-10-04T11:30:25.166Z,25.42
2022-10-04T11:36:12.686Z,25.54
2022-10-04T11:41:19.541Z,25.75
2022-10-04T11:46:36.117Z,23.74
2022-10-04T11:52:09.267Z,24.24
2022-10-04T11:57:19.611Z,23.68
2022-10-04T12:02:58.478Z,25.91
2022-10-04T12:08:20.401Z,31.56
2022-10-04T12:13:37.906Z,35.76
2022-10-04T12:19:07.005Z,36.45
2022-10-04T12:24:21.387Z,34.12
2022-10-04T12:30:02.580Z,26.76
2022-10-04T12:35:19.383Z,24.78
2022-10-04T12:40:29.311Z,23.13
2022-10-04T12:45:43.557Z,22.57
2022-10-04T12:50:56.110Z,22.31
2022-10-04T12:56:13.149Z,22.93
2022-10-04T13:01:21.045Z,23.08
2022-10-04T13:06:31.471Z,21.90
2022-10-04T13:11:51.274Z,20.91
2022-10-04T13:22:55.450Z,20.88
2022-10-04T13:28:01.401Z,21.54
2022-10-04T13:33:12.174Z,21.37
2022-10-04T13:38:41.191Z,21.09
2022-10-04T13:44:07.868Z,20.71
2022-10-04T13:49:30.768Z,20.86
2022-10-04T13:54:56.388Z,20.96
2022-10-04T14:00:03.551Z,20.63
2022-10-04T14:05:42.723Z,20.16
2022-10-04T14:11:10.456Z,19.49
2022-10-04T14:16:34.459Z,19.00
2022-10-04T14:22:13.837Z,18.67
2022-10-04T14:27:37.366Z,18.47
2022-10-04T14:33:00.847Z,18.36
2022-10-04T14:38:43.378Z,18.26
2022-10-04T14:44:11.229Z,18.25
2022-10-04T14:49:19.553Z,18.27
2022-10-04T14:54:36.213Z,18.35
2022-10-04T15:00:06.678Z,18.86
2022-10-04T15:05:31.786Z,20.73
2022-10-04T15:10:38.342Z,23.00
2022-10-04T15:15:58.726Z,26.00
2022-10-04T15:21:03.434Z,29.10
2022-10-04T15:26:27.336Z,30.95
2022-10-04T15:31:35.497Z,31.14
2022-10-04T15:37:07.706Z,29.20
2022-10-04T15:42:15.051Z,27.94
2022-10-04T15:47:22.764Z,25.35
2022-10-04T15:52:49.875Z,22.08
2022-10-04T15:58:05.333Z,20.86
2022-10-04T16:03:20.894Z,19.95
2022-10-04T16:09:00.139Z,19.20
2022-10-04T16:14:15.658Z,18.66
2022-10-04T16:19:32.811Z,18.21
2022-10-04T16:24:48.891Z,17.80
2022-10-04T16:30:14.813Z,17.32
2022-10-04T16:35:26.232Z,16.94
2022-10-04T16:40:35.150Z,16.63
2022-10-04T16:45:43.914Z,16.38
2022-10-04T16:51:02.625Z,16.13
2022-10-04T16:56:11.979Z,15.99
2022-10-04T17:01:42.484Z,15.82
2022-10-04T17:06:51.562Z,15.65
2022-10-04T17:12:04.494Z,15.50
2022-10-04T17:17:12.350Z,15.39
2022-10-04T17:22:23.395Z,15.29
2022-10-04T17:27:56.263Z,15.20
2022-10-04T17:33:12.796Z,15.15
2022-10-04T17:38:21.422Z,15.12
2022-10-04T17:43:31.292Z,15.06
2022-10-04T17:48:57.879Z,14.98
2022-10-04T17:54:23.957Z,14.97
2022-10-04T17:59:31.230Z,14.97
2022-10-04T18:04:37.418Z,14.93
2022-10-04T18:09:44.766Z,14.94
2022-10-04T18:14:53.282Z,14.83
2022-10-04T18:20:02.699Z,14.75
2022-10-04T18:25:14.131Z,14.53
2022-10-04T18:30:19.209Z,14.50
2022-10-04T18:35:32.006Z,14.56
2022-10-04T18:40:41.798Z,14.57
2022-10-04T18:46:01.327Z,14.56
2022-10-04T18:51:22.551Z,14.51
2022-10-04T18:56:31.786Z,14.49
2022-10-04T19:02:01.176Z,14.44
2022-10-04T19:07:08.568Z,14.40
2022-10-04T19:12:16.201Z,14.37
2022-10-04T19:17:26.395Z,14.26
2022-10-04T19:22:38.579Z,14.25
2022-10-04T19:27:45.283Z,14.21
2022-10-04T19:33:08.947Z,14.14
2022-10-04T19:38:25.954Z,14.10
2022-10-04T19:43:35.200Z,14.05
2022-10-04T19:48:42.951Z,14.05
2022-10-04T19:53:46.082Z,14.00
2022-10-04T19:58:54.575Z,13.94
2022-10-04T20:04:11.796Z,13.85
2022-10-04T20:09:26.844Z,13.74
2022-10-04T20:14:57.435Z,13.66
2022-10-04T20:20:00.128Z,13.61
2022-10-04T20:25:02.894Z,13.58
2022-10-04T20:30:14.208Z,13.55
2022-10-04T20:36:14.111Z,13.51
2022-10-04T20:42:22.532Z,13.50
2022-10-04T20:47:46.278Z,13.48
2022-10-04T20:52:52.673Z,13.40
2022-10-04T20:57:56.832Z,13.40
2022-10-04T21:03:16.945Z,13.40
2022-10-04T21:08:23.986Z,13.39
2022-10-04T21:13:57.920Z,13.37
2022-10-04T21:19:48.779Z,13.31
2022-10-04T21:24:57.455Z,13.29
2022-10-04T21:30:01.000Z,13.26
2022-10-04T21:35:03.789Z,13.25
2022-10-04T21:40:09.334Z,13.24
2022-10-04T21:45:12.917Z,13.22
2022-10-04T21:50:15.731Z,13.18
2022-10-04T21:55:19.682Z,13.11
2022-10-04T22:00:23.103Z,13.18
2022-10-04T22:05:25.755Z,13.18
2022-10-04T22:10:29.708Z,13.14
2022-10-04T22:15:32.345Z,13.12
2022-10-04T22:20:35.051Z,13.12
2022-10-04T22:25:41.228Z,13.10
2022-10-04T22:30:45.220Z,13.12
2022-10-04T22:35:47.783Z,13.08
2022-10-04T22:40:51.963Z,13.04
2022-10-04T22:45:55.581Z,13.05
2022-10-04T22:50:58.223Z,13.05
2022-10-04T22:56:02.159Z,12.98
2022-10-04T23:01:09.633Z,13.00
2022-10-04T23:06:14.241Z,12.97
2022-10-04T23:11:18.313Z,12.95
2022-10-04T23:16:23.565Z,12.94
2022-10-04T23:21:27.409Z,12.90
2022-10-04T23:26:37.748Z,12.91
2022-10-04T23:31:40.571Z,12.89
2022-10-04T23:36:43.576Z,12.87
2022-10-04T23:41:47.730Z,12.84
2022-10-04T23:46:50.360Z,12.83
2022-10-04T23:51:59.654Z,12.83
2022-10-04T23:57:03.659Z,12.80
